sensor_id;sensor_type;location;lat;lon;timestamp;P1;durP1;ratioP1;P2;durP2;ratioP2
59524;SDS011;45346;51.728;5.732;2022-07-03T00:01:40;5.88;;;4.93;;
59524;SDS011;45346;51.728;5.732;2022-07-03T00:04:05;4.93;;;4.53;;
59524;SDS011;45346;51.728;5.732;2022-07-03T00:06:31;5.47;;;4.97;;
59524;SDS011;45346;51.728;5.732;2022-07-03T00:08:57;5.03;;;4.65;;
59524;SDS011;45346;51.728;5.732;2022-07-03T00:11:22;5.18;;;4.68;;
59524;SDS011;45346;51.728;5.732;2022-07-03T00:13:48;8.15;;;4.57;;
59524;SDS011;45346;51.728;5.732;2022-07-03T00:16:13;4.70;;;4.30;;
59524;SDS011;45346;51.728;5.732;2022-07-03T00:18:38;5.05;;;4.60;;
59524;SDS011;45346;51.728;5.732;2022-07-03T00:21:05;4.50;;;4.20;;
59524;SDS011;45346;51.728;5.732;2022-07-03T00:23:46;4.70;;;4.30;;
59524;SDS011;45346;51.728;5.732;2022-07-03T00:26:15;4.85;;;4.45;;
59524;SDS011;45346;51.728;5.732;2022-07-03T00:28:41;4.90;;;4.50;;
59524;SDS011;45346;51.728;5.732;2022-07-03T00:31:06;6.57;;;4.30;;
59524;SDS011;45346;51.728;5.732;2022-07-03T00:33:32;5.88;;;5.18;;
59524;SDS011;45346;51.728;5.732;2022-07-03T00:35:58;6.68;;;4.80;;
59524;SDS011;45346;51.728;5.732;2022-07-03T00:38:24;5.97;;;5.25;;
59524;SDS011;45346;51.728;5.732;2022-07-03T00:40:49;5.60;;;5.20;;
59524;SDS011;45346;51.728;5.732;2022-07-03T00:43:15;7.18;;;5.32;;
59524;SDS011;45346;51.728;5.732;2022-07-03T00:45:41;5.63;;;5.13;;
59524;SDS011;45346;51.728;5.732;2022-07-03T00:48:10;5.45;;;4.75;;
59524;SDS011;45346;51.728;5.732;2022-07-03T00:50:35;5.95;;;5.30;;
59524;SDS011;45346;51.728;5.732;2022-07-03T00:53:01;6.88;;;4.90;;
59524;SDS011;45346;51.728;5.732;2022-07-03T00:55:27;5.63;;;4.90;;
59524;SDS011;45346;51.728;5.732;2022-07-03T00:57:52;10.00;;;5.22;;
59524;SDS011;45346;51.728;5.732;2022-07-03T01:00:19;5.78;;;5.28;;
59524;SDS011;45346;51.728;5.732;2022-07-03T01:02:55;5.25;;;4.85;;
59524;SDS011;45346;51.728;5.732;2022-07-03T01:05:37;6.05;;;4.88;;
59524;SDS011;45346;51.728;5.732;2022-07-03T01:13:01;8.23;;;7.15;;
59524;SDS011;45346;51.728;5.732;2022-07-03T01:17:56;10.85;;;7.40;;
59524;SDS011;45346;51.728;5.732;2022-07-03T01:20:26;11.35;;;9.35;;
59524;SDS011;45346;51.728;5.732;2022-07-03T01:22:54;12.38;;;10.65;;
59524;SDS011;45346;51.728;5.732;2022-07-03T01:25:26;12.07;;;10.07;;
59524;SDS011;45346;51.728;5.732;2022-07-03T01:30:31;11.00;;;9.77;;
59524;SDS011;45346;51.728;5.732;2022-07-03T01:32:57;10.98;;;9.82;;
59524;SDS011;45346;51.728;5.732;2022-07-03T01:35:26;8.98;;;8.07;;
59524;SDS011;45346;51.728;5.732;2022-07-03T01:37:52;8.48;;;7.70;;
59524;SDS011;45346;51.728;5.732;2022-07-03T01:40:19;9.52;;;8.63;;
59524;SDS011;45346;51.728;5.732;2022-07-03T01:42:46;9.88;;;8.43;;
59524;SDS011;45346;51.728;5.732;2022-07-03T01:45:14;14.05;;;10.27;;
59524;SDS011;45346;51.728;5.732;2022-07-03T01:47:40;12.70;;;9.55;;
59524;SDS011;45346;51.728;5.732;2022-07-03T01:50:07;9.90;;;8.90;;
59524;SDS011;45346;51.728;5.732;2022-07-03T01:52:32;10.50;;;8.55;;
59524;SDS011;45346;51.728;5.732;2022-07-03T01:54:59;10.38;;;7.68;;
59524;SDS011;45346;51.728;5.732;2022-07-03T01:57:25;7.75;;;7.15;;
59524;SDS011;45346;51.728;5.732;2022-07-03T01:59:58;8.85;;;8.05;;
59524;SDS011;45346;51.728;5.732;2022-07-03T02:02:25;9.48;;;7.30;;
59524;SDS011;45346;51.728;5.732;2022-07-03T02:04:54;15.35;;;7.85;;
59524;SDS011;45346;51.728;5.732;2022-07-03T02:07:31;8.65;;;7.85;;
59524;SDS011;45346;51.728;5.732;2022-07-03T02:10:02;8.82;;;7.90;;
59524;SDS011;45346;51.728;5.732;2022-07-03T02:12:30;9.07;;;8.07;;
59524;SDS011;45346;51.728;5.732;2022-07-03T02:15:05;9.15;;;8.25;;
59524;SDS011;45346;51.728;5.732;2022-07-03T02:17:35;8.25;;;7.32;;
59524;SDS011;45346;51.728;5.732;2022-07-03T02:20:05;8.60;;;7.80;;
59524;SDS011;45346;51.728;5.732;2022-07-03T02:22:33;10.27;;;8.38;;
59524;SDS011;45346;51.728;5.732;2022-07-03T02:25:12;9.05;;;8.25;;
59524;SDS011;45346;51.728;5.732;2022-07-03T02:27:42;9.65;;;8.25;;
59524;SDS011;45346;51.728;5.732;2022-07-03T02:30:09;8.90;;;8.10;;
59524;SDS011;45346;51.728;5.732;2022-07-03T02:32:40;10.35;;;8.82;;
59524;SDS011;45346;51.728;5.732;2022-07-03T02:35:07;9.45;;;8.52;;
59524;SDS011;45346;51.728;5.732;2022-07-03T02:37:35;9.60;;;8.23;;
59524;SDS011;45346;51.728;5.732;2022-07-03T02:40:04;9.15;;;8.23;;
59524;SDS011;45346;51.728;5.732;2022-07-03T02:45:15;8.32;;;7.53;;
59524;SDS011;45346;51.728;5.732;2022-07-03T02:47:48;9.63;;;8.63;;
59524;SDS011;45346;51.728;5.732;2022-07-03T02:50:18;9.40;;;8.18;;
59524;SDS011;45346;51.728;5.732;2022-07-03T02:57:44;9.05;;;8.15;;
59524;SDS011;45346;51.728;5.732;2022-07-03T03:00:11;8.45;;;7.65;;
59524;SDS011;45346;51.728;5.732;2022-07-03T03:10:26;9.43;;;8.38;;
59524;SDS011;45346;51.728;5.732;2022-07-03T03:15:29;8.13;;;7.32;;
59524;SDS011;45346;51.728;5.732;2022-07-03T03:17:56;9.52;;;7.95;;
59524;SDS011;45346;51.728;5.732;2022-07-03T03:20:27;8.93;;;8.02;;
59524;SDS011;45346;51.728;5.732;2022-07-03T03:25:22;12.57;;;8.43;;
59524;SDS011;45346;51.728;5.732;2022-07-03T03:27:47;9.48;;;8.57;;
59524;SDS011;45346;51.728;5.732;2022-07-03T03:30:12;9.27;;;8.37;;
59524;SDS011;45346;51.728;5.732;2022-07-03T03:32:38;9.93;;;8.63;;
59524;SDS011;45346;51.728;5.732;2022-07-03T03:35:04;9.85;;;8.85;;
59524;SDS011;45346;51.728;5.732;2022-07-03T03:37:30;11.82;;;9.05;;
59524;SDS011;45346;51.728;5.732;2022-07-03T03:39:55;10.85;;;8.82;;
59524;SDS011;45346;51.728;5.732;2022-07-03T03:42:21;9.48;;;8.57;;
59524;SDS011;45346;51.728;5.732;2022-07-03T03:44:46;13.57;;;9.18;;
59524;SDS011;45346;51.728;5.732;2022-07-03T03:47:11;9.25;;;8.23;;
59524;SDS011;45346;51.728;5.732;2022-07-03T03:49:36;9.20;;;7.80;;
59524;SDS011;45346;51.728;5.732;2022-07-03T03:52:02;8.88;;;7.55;;
59524;SDS011;45346;51.728;5.732;2022-07-03T03:54:27;8.73;;;7.65;;
59524;SDS011;45346;51.728;5.732;2022-07-03T03:56:52;11.40;;;8.57;;
59524;SDS011;45346;51.728;5.732;2022-07-03T03:59:17;11.13;;;8.68;;
59524;SDS011;45346;51.728;5.732;2022-07-03T04:01:43;11.67;;;9.70;;
59524;SDS011;45346;51.728;5.732;2022-07-03T04:04:08;12.15;;;9.95;;
59524;SDS011;45346;51.728;5.732;2022-07-03T04:06:33;11.23;;;10.05;;
59524;SDS011;45346;51.728;5.732;2022-07-03T04:08:58;13.27;;;10.13;;
59524;SDS011;45346;51.728;5.732;2022-07-03T04:11:23;9.47;;;8.57;;
59524;SDS011;45346;51.728;5.732;2022-07-03T04:13:48;12.10;;;10.03;;
59524;SDS011;45346;51.728;5.732;2022-07-03T04:16:14;9.70;;;8.80;;
59524;SDS011;45346;51.728;5.732;2022-07-03T04:18:39;13.33;;;10.23;;
59524;SDS011;45346;51.728;5.732;2022-07-03T04:21:04;16.43;;;11.87;;
59524;SDS011;45346;51.728;5.732;2022-07-03T04:23:30;13.57;;;11.30;;
59524;SDS011;45346;51.728;5.732;2022-07-03T04:25:55;12.55;;;10.55;;
59524;SDS011;45346;51.728;5.732;2022-07-03T04:28:20;12.23;;;10.88;;
59524;SDS011;45346;51.728;5.732;2022-07-03T04:30:45;12.15;;;10.45;;
59524;SDS011;45346;51.728;5.732;2022-07-03T04:33:11;16.65;;;10.68;;
59524;SDS011;45346;51.728;5.732;2022-07-03T04:35:36;11.93;;;10.50;;
59524;SDS011;45346;51.728;5.732;2022-07-03T04:38:03;15.40;;;11.18;;
59524;SDS011;45346;51.728;5.732;2022-07-03T04:40:28;15.23;;;12.13;;
59524;SDS011;45346;51.728;5.732;2022-07-03T04:42:53;14.30;;;12.52;;
59524;SDS011;45346;51.728;5.732;2022-07-03T04:45:18;16.63;;;11.88;;
59524;SDS011;45346;51.728;5.732;2022-07-03T04:47:43;14.82;;;12.35;;
59524;SDS011;45346;51.728;5.732;2022-07-03T04:50:09;15.93;;;11.45;;
59524;SDS011;45346;51.728;5.732;2022-07-03T04:52:34;13.85;;;11.68;;
59524;SDS011;45346;51.728;5.732;2022-07-03T04:54:59;15.07;;;12.60;;
59524;SDS011;45346;51.728;5.732;2022-07-03T04:57:24;15.38;;;12.77;;
59524;SDS011;45346;51.728;5.732;2022-07-03T04:59:49;20.65;;;14.55;;
59524;SDS011;45346;51.728;5.732;2022-07-03T05:02:14;17.47;;;12.70;;
59524;SDS011;45346;51.728;5.732;2022-07-03T05:04:40;17.30;;;12.87;;
59524;SDS011;45346;51.728;5.732;2022-07-03T05:07:05;18.37;;;13.10;;
59524;SDS011;45346;51.728;5.732;2022-07-03T05:09:30;20.25;;;13.65;;
59524;SDS011;45346;51.728;5.732;2022-07-03T05:11:55;30.30;;;14.37;;
59524;SDS011;45346;51.728;5.732;2022-07-03T05:14:20;22.40;;;12.93;;
59524;SDS011;45346;51.728;5.732;2022-07-03T05:16:45;18.40;;;13.30;;
59524;SDS011;45346;51.728;5.732;2022-07-03T05:19:11;15.70;;;11.57;;
59524;SDS011;45346;51.728;5.732;2022-07-03T05:21:37;20.50;;;12.27;;
59524;SDS011;45346;51.728;5.732;2022-07-03T05:24:02;17.33;;;11.27;;
59524;SDS011;45346;51.728;5.732;2022-07-03T05:26:27;12.90;;;9.88;;
59524;SDS011;45346;51.728;5.732;2022-07-03T05:28:53;13.50;;;8.77;;
59524;SDS011;45346;51.728;5.732;2022-07-03T05:31:18;14.87;;;7.93;;
59524;SDS011;45346;51.728;5.732;2022-07-03T05:33:43;13.00;;;7.97;;
59524;SDS011;45346;51.728;5.732;2022-07-03T05:36:08;9.40;;;7.37;;
59524;SDS011;45346;51.728;5.732;2022-07-03T05:38:33;10.80;;;7.55;;
59524;SDS011;45346;51.728;5.732;2022-07-03T05:41:17;12.73;;;6.90;;
59524;SDS011;45346;51.728;5.732;2022-07-03T05:43:42;8.30;;;6.25;;
59524;SDS011;45346;51.728;5.732;2022-07-03T05:46:08;12.48;;;7.22;;
59524;SDS011;45346;51.728;5.732;2022-07-03T05:48:33;8.63;;;6.50;;
59524;SDS011;45346;51.728;5.732;2022-07-03T05:50:58;7.57;;;6.10;;
59524;SDS011;45346;51.728;5.732;2022-07-03T05:53:23;13.00;;;6.87;;
59524;SDS011;45346;51.728;5.732;2022-07-03T05:55:49;8.67;;;5.47;;
59524;SDS011;45346;51.728;5.732;2022-07-03T05:58:14;8.75;;;5.28;;
59524;SDS011;45346;51.728;5.732;2022-07-03T06:00:39;10.05;;;5.45;;
59524;SDS011;45346;51.728;5.732;2022-07-03T06:03:05;6.68;;;5.47;;
59524;SDS011;45346;51.728;5.732;2022-07-03T06:05:30;11.15;;;5.70;;
59524;SDS011;45346;51.728;5.732;2022-07-03T06:07:57;6.63;;;4.88;;
59524;SDS011;45346;51.728;5.732;2022-07-03T06:10:22;10.63;;;5.30;;
59524;SDS011;45346;51.728;5.732;2022-07-03T06:12:47;7.17;;;4.93;;
59524;SDS011;45346;51.728;5.732;2022-07-03T06:15:12;7.60;;;4.97;;
59524;SDS011;45346;51.728;5.732;2022-07-03T06:17:38;8.80;;;5.00;;
59524;SDS011;45346;51.728;5.732;2022-07-03T06:20:04;9.23;;;4.95;;
59524;SDS011;45346;51.728;5.732;2022-07-03T06:22:29;10.25;;;4.50;;
59524;SDS011;45346;51.728;5.732;2022-07-03T06:24:55;6.60;;;4.28;;
59524;SDS011;45346;51.728;5.732;2022-07-03T06:27:20;8.70;;;4.00;;
59524;SDS011;45346;51.728;5.732;2022-07-03T06:29:45;8.97;;;3.90;;
59524;SDS011;45346;51.728;5.732;2022-07-03T06:32:10;5.28;;;4.13;;
59524;SDS011;45346;51.728;5.732;2022-07-03T06:34:35;8.23;;;4.93;;
59524;SDS011;45346;51.728;5.732;2022-07-03T06:37:01;6.23;;;3.47;;
59524;SDS011;45346;51.728;5.732;2022-07-03T06:39:26;6.68;;;3.47;;
59524;SDS011;45346;51.728;5.732;2022-07-03T06:41:51;6.63;;;3.17;;
59524;SDS011;45346;51.728;5.732;2022-07-03T06:44:16;5.10;;;3.33;;
59524;SDS011;45346;51.728;5.732;2022-07-03T06:46:41;7.00;;;3.17;;
59524;SDS011;45346;51.728;5.732;2022-07-03T06:49:06;12.10;;;3.27;;
59524;SDS011;45346;51.728;5.732;2022-07-03T06:51:32;6.83;;;2.90;;
59524;SDS011;45346;51.728;5.732;2022-07-03T06:53:58;6.95;;;2.78;;
59524;SDS011;45346;51.728;5.732;2022-07-03T06:56:23;7.47;;;2.90;;
59524;SDS011;45346;51.728;5.732;2022-07-03T06:58:49;5.18;;;2.75;;
59524;SDS011;45346;51.728;5.732;2022-07-03T07:01:14;9.17;;;3.33;;
59524;SDS011;45346;51.728;5.732;2022-07-03T07:03:39;5.57;;;3.00;;
59524;SDS011;45346;51.728;5.732;2022-07-03T07:06:04;5.00;;;2.60;;
59524;SDS011;45346;51.728;5.732;2022-07-03T07:08:29;4.00;;;1.93;;
59524;SDS011;45346;51.728;5.732;2022-07-03T07:10:54;3.40;;;2.23;;
59524;SDS011;45346;51.728;5.732;2022-07-03T07:13:20;5.43;;;2.65;;
59524;SDS011;45346;51.728;5.732;2022-07-03T07:15:45;4.55;;;2.10;;
59524;SDS011;45346;51.728;5.732;2022-07-03T07:18:10;4.50;;;2.00;;
59524;SDS011;45346;51.728;5.732;2022-07-03T07:20:35;6.23;;;2.60;;
59524;SDS011;45346;51.728;5.732;2022-07-03T07:23:00;7.70;;;3.80;;
59524;SDS011;45346;51.728;5.732;2022-07-03T07:25:25;6.75;;;2.70;;
59524;SDS011;45346;51.728;5.732;2022-07-03T07:27:50;4.93;;;2.57;;
59524;SDS011;45346;51.728;5.732;2022-07-03T07:30:16;3.10;;;2.10;;
59524;SDS011;45346;51.728;5.732;2022-07-03T07:32:41;7.30;;;2.45;;
59524;SDS011;45346;51.728;5.732;2022-07-03T07:35:06;6.63;;;1.95;;
59524;SDS011;45346;51.728;5.732;2022-07-03T07:37:32;2.67;;;1.80;;
59524;SDS011;45346;51.728;5.732;2022-07-03T07:39:57;2.35;;;1.65;;
59524;SDS011;45346;51.728;5.732;2022-07-03T07:42:22;6.93;;;2.20;;
59524;SDS011;45346;51.728;5.732;2022-07-03T07:44:49;5.72;;;2.10;;
59524;SDS011;45346;51.728;5.732;2022-07-03T07:47:14;3.88;;;1.95;;
59524;SDS011;45346;51.728;5.732;2022-07-03T07:49:39;5.97;;;2.50;;
59524;SDS011;45346;51.728;5.732;2022-07-03T07:52:05;3.20;;;2.25;;
59524;SDS011;45346;51.728;5.732;2022-07-03T07:54:30;5.85;;;2.67;;
59524;SDS011;45346;51.728;5.732;2022-07-03T07:56:55;6.03;;;2.80;;
59524;SDS011;45346;51.728;5.732;2022-07-03T07:59:20;2.90;;;2.37;;
59524;SDS011;45346;51.728;5.732;2022-07-03T08:01:45;3.17;;;2.70;;
59524;SDS011;45346;51.728;5.732;2022-07-03T08:04:29;6.28;;;2.53;;
59524;SDS011;45346;51.728;5.732;2022-07-03T08:07:13;3.95;;;2.45;;
59524;SDS011;45346;51.728;5.732;2022-07-03T08:09:38;7.43;;;2.50;;
59524;SDS011;45346;51.728;5.732;2022-07-03T08:12:04;4.67;;;2.00;;
59524;SDS011;45346;51.728;5.732;2022-07-03T08:14:29;4.38;;;1.83;;
59524;SDS011;45346;51.728;5.732;2022-07-03T08:16:54;11.87;;;2.13;;
59524;SDS011;45346;51.728;5.732;2022-07-03T08:19:19;5.97;;;1.87;;
59524;SDS011;45346;51.728;5.732;2022-07-03T08:21:45;3.57;;;1.70;;
59524;SDS011;45346;51.728;5.732;2022-07-03T08:24:10;3.45;;;1.70;;
59524;SDS011;45346;51.728;5.732;2022-07-03T08:26:36;5.15;;;1.80;;
59524;SDS011;45346;51.728;5.732;2022-07-03T08:29:01;5.47;;;1.70;;
59524;SDS011;45346;51.728;5.732;2022-07-03T08:31:26;4.20;;;1.50;;
59524;SDS011;45346;51.728;5.732;2022-07-03T08:33:51;3.43;;;2.03;;
59524;SDS011;45346;51.728;5.732;2022-07-03T08:36:16;3.90;;;2.00;;
59524;SDS011;45346;51.728;5.732;2022-07-03T08:38:42;3.30;;;2.20;;
59524;SDS011;45346;51.728;5.732;2022-07-03T08:41:07;6.93;;;2.15;;
59524;SDS011;45346;51.728;5.732;2022-07-03T08:43:33;3.28;;;2.40;;
59524;SDS011;45346;51.728;5.732;2022-07-03T08:45:59;3.05;;;1.80;;
59524;SDS011;45346;51.728;5.732;2022-07-03T08:48:24;4.78;;;1.45;;
59524;SDS011;45346;51.728;5.732;2022-07-03T08:50:50;2.83;;;1.80;;
59524;SDS011;45346;51.728;5.732;2022-07-03T08:53:15;3.25;;;1.60;;
59524;SDS011;45346;51.728;5.732;2022-07-03T08:55:41;6.63;;;1.60;;
59524;SDS011;45346;51.728;5.732;2022-07-03T08:58:06;1.60;;;1.50;;
59524;SDS011;45346;51.728;5.732;2022-07-03T09:00:35;2.90;;;1.80;;
59524;SDS011;45346;51.728;5.732;2022-07-03T09:03:00;3.90;;;1.70;;
59524;SDS011;45346;51.728;5.732;2022-07-03T09:05:29;3.28;;;1.95;;
59524;SDS011;45346;51.728;5.732;2022-07-03T09:07:54;1.95;;;1.42;;
59524;SDS011;45346;51.728;5.732;2022-07-03T09:10:20;3.05;;;1.67;;
59524;SDS011;45346;51.728;5.732;2022-07-03T09:12:46;5.13;;;1.60;;
59524;SDS011;45346;51.728;5.732;2022-07-03T09:15:11;5.13;;;1.65;;
59524;SDS011;45346;51.728;5.732;2022-07-03T09:17:37;4.20;;;1.90;;
59524;SDS011;45346;51.728;5.732;2022-07-03T09:20:03;5.63;;;1.50;;
59524;SDS011;45346;51.728;5.732;2022-07-03T09:22:29;6.25;;;2.38;;
59524;SDS011;45346;51.728;5.732;2022-07-03T09:25:08;4.72;;;1.90;;
59524;SDS011;45346;51.728;5.732;2022-07-03T09:27:34;3.38;;;2.47;;
59524;SDS011;45346;51.728;5.732;2022-07-03T09:30:07;3.28;;;1.95;;
59524;SDS011;45346;51.728;5.732;2022-07-03T09:32:40;3.65;;;1.98;;
59524;SDS011;45346;51.728;5.732;2022-07-03T09:35:13;2.83;;;1.90;;
59524;SDS011;45346;51.728;5.732;2022-07-03T09:37:39;3.60;;;1.83;;
59524;SDS011;45346;51.728;5.732;2022-07-03T09:40:04;4.68;;;1.85;;
59524;SDS011;45346;51.728;5.732;2022-07-03T09:42:30;3.38;;;1.67;;
59524;SDS011;45346;51.728;5.732;2022-07-03T09:44:55;5.37;;;1.90;;
59524;SDS011;45346;51.728;5.732;2022-07-03T09:47:23;4.27;;;1.87;;
59524;SDS011;45346;51.728;5.732;2022-07-03T09:49:58;3.45;;;1.77;;
59524;SDS011;45346;51.728;5.732;2022-07-03T09:52:28;3.65;;;2.10;;
59524;SDS011;45346;51.728;5.732;2022-07-03T09:54:54;2.47;;;1.67;;
59524;SDS011;45346;51.728;5.732;2022-07-03T09:57:19;2.58;;;1.73;;
59524;SDS011;45346;51.728;5.732;2022-07-03T09:59:44;5.15;;;1.80;;
59524;SDS011;45346;51.728;5.732;2022-07-03T10:02:09;1.93;;;1.50;;
59524;SDS011;45346;51.728;5.732;2022-07-03T10:04:35;4.80;;;1.67;;
59524;SDS011;45346;51.728;5.732;2022-07-03T10:07:00;2.20;;;1.50;;
59524;SDS011;45346;51.728;5.732;2022-07-03T10:09:26;3.85;;;1.27;;
59524;SDS011;45346;51.728;5.732;2022-07-03T10:11:52;3.90;;;1.73;;
59524;SDS011;45346;51.728;5.732;2022-07-03T10:14:18;3.97;;;2.00;;
59524;SDS011;45346;51.728;5.732;2022-07-03T10:16:44;6.15;;;1.90;;
59524;SDS011;45346;51.728;5.732;2022-07-03T10:19:19;3.87;;;2.00;;
59524;SDS011;45346;51.728;5.732;2022-07-03T10:21:47;3.28;;;1.73;;
59524;SDS011;45346;51.728;5.732;2022-07-03T10:24:14;2.15;;;1.55;;
59524;SDS011;45346;51.728;5.732;2022-07-03T10:26:40;5.03;;;1.50;;
59524;SDS011;45346;51.728;5.732;2022-07-03T10:29:06;3.10;;;1.50;;
59524;SDS011;45346;51.728;5.732;2022-07-03T10:31:32;3.65;;;1.60;;
59524;SDS011;45346;51.728;5.732;2022-07-03T10:33:57;7.13;;;1.85;;
59524;SDS011;45346;51.728;5.732;2022-07-03T10:36:23;3.75;;;2.42;;
59524;SDS011;45346;51.728;5.732;2022-07-03T10:38:49;7.85;;;2.10;;
59524;SDS011;45346;51.728;5.732;2022-07-03T10:41:25;3.08;;;2.00;;
59524;SDS011;45346;51.728;5.732;2022-07-03T10:44:12;4.80;;;2.15;;
59524;SDS011;45346;51.728;5.732;2022-07-03T10:46:56;3.88;;;2.53;;
59524;SDS011;45346;51.728;5.732;2022-07-03T10:49:21;2.78;;;2.00;;
59524;SDS011;45346;51.728;5.732;2022-07-03T10:51:59;4.77;;;1.90;;
59524;SDS011;45346;51.728;5.732;2022-07-03T10:54:26;3.72;;;2.53;;
59524;SDS011;45346;51.728;5.732;2022-07-03T10:59:49;2.10;;;1.63;;
59524;SDS011;45346;51.728;5.732;2022-07-03T11:02:21;4.32;;;2.55;;
59524;SDS011;45346;51.728;5.732;2022-07-03T11:07:27;3.78;;;2.40;;
59524;SDS011;45346;51.728;5.732;2022-07-03T11:28:04;4.93;;;2.20;;
59524;SDS011;45346;51.728;5.732;2022-07-03T11:30:29;2.03;;;1.83;;
59524;SDS011;45346;51.728;5.732;2022-07-03T11:32:56;4.10;;;2.33;;
59524;SDS011;45346;51.728;5.732;2022-07-03T11:38:17;2.80;;;1.75;;
59524;SDS011;45346;51.728;5.732;2022-07-03T11:40:43;2.75;;;2.03;;
59524;SDS011;45346;51.728;5.732;2022-07-03T11:43:10;2.83;;;1.90;;
59524;SDS011;45346;51.728;5.732;2022-07-03T11:45:37;2.67;;;1.90;;
59524;SDS011;45346;51.728;5.732;2022-07-03T11:48:05;1.45;;;1.30;;
59524;SDS011;45346;51.728;5.732;2022-07-03T11:50:40;1.85;;;1.67;;
59524;SDS011;45346;51.728;5.732;2022-07-03T11:53:14;4.60;;;1.88;;
59524;SDS011;45346;51.728;5.732;2022-07-03T11:55:46;2.35;;;1.48;;
59524;SDS011;45346;51.728;5.732;2022-07-03T11:58:11;2.50;;;1.75;;
59524;SDS011;45346;51.728;5.732;2022-07-03T12:00:37;4.03;;;1.50;;
59524;SDS011;45346;51.728;5.732;2022-07-03T12:03:02;2.42;;;1.73;;
59524;SDS011;45346;51.728;5.732;2022-07-03T12:05:28;5.72;;;1.95;;
59524;SDS011;45346;51.728;5.732;2022-07-03T12:08:03;3.57;;;2.00;;
59524;SDS011;45346;51.728;5.732;2022-07-03T12:10:38;5.18;;;1.70;;
59524;SDS011;45346;51.728;5.732;2022-07-03T12:13:04;5.45;;;1.95;;
59524;SDS011;45346;51.728;5.732;2022-07-03T12:15:29;3.28;;;1.80;;
59524;SDS011;45346;51.728;5.732;2022-07-03T12:17:54;2.50;;;1.80;;
59524;SDS011;45346;51.728;5.732;2022-07-03T12:20:19;6.95;;;2.00;;
59524;SDS011;45346;51.728;5.732;2022-07-03T12:22:44;3.33;;;2.13;;
59524;SDS011;45346;51.728;5.732;2022-07-03T12:25:10;4.50;;;1.90;;
59524;SDS011;45346;51.728;5.732;2022-07-03T12:27:40;3.22;;;2.13;;
59524;SDS011;45346;51.728;5.732;2022-07-03T12:30:06;3.10;;;1.90;;
59524;SDS011;45346;51.728;5.732;2022-07-03T12:32:32;1.98;;;1.85;;
59524;SDS011;45346;51.728;5.732;2022-07-03T12:34:58;4.22;;;2.00;;
59524;SDS011;45346;51.728;5.732;2022-07-03T12:37:39;3.53;;;1.80;;
59524;SDS011;45346;51.728;5.732;2022-07-03T12:40:10;3.50;;;2.53;;
59524;SDS011;45346;51.728;5.732;2022-07-03T12:42:42;3.10;;;2.10;;
59524;SDS011;45346;51.728;5.732;2022-07-03T12:45:10;3.17;;;2.20;;
59524;SDS011;45346;51.728;5.732;2022-07-03T12:47:36;3.00;;;2.00;;
59524;SDS011;45346;51.728;5.732;2022-07-03T12:50:02;2.33;;;2.20;;
59524;SDS011;45346;51.728;5.732;2022-07-03T12:52:28;1.95;;;1.85;;
59524;SDS011;45346;51.728;5.732;2022-07-03T12:54:54;3.75;;;1.70;;
59524;SDS011;45346;51.728;5.732;2022-07-03T12:57:19;5.38;;;2.08;;
59524;SDS011;45346;51.728;5.732;2022-07-03T13:00:05;8.73;;;2.58;;
59524;SDS011;45346;51.728;5.732;2022-07-03T13:02:34;4.60;;;1.83;;
59524;SDS011;45346;51.728;5.732;2022-07-03T13:05:00;2.30;;;1.70;;
59524;SDS011;45346;51.728;5.732;2022-07-03T13:07:29;3.25;;;1.63;;
59524;SDS011;45346;51.728;5.732;2022-07-03T13:09:55;2.70;;;1.45;;
59524;SDS011;45346;51.728;5.732;2022-07-03T13:12:20;2.80;;;1.60;;
59524;SDS011;45346;51.728;5.732;2022-07-03T13:14:59;5.05;;;1.83;;
59524;SDS011;45346;51.728;5.732;2022-07-03T13:20:08;3.03;;;1.50;;
59524;SDS011;45346;51.728;5.732;2022-07-03T13:22:33;5.03;;;1.63;;
59524;SDS011;45346;51.728;5.732;2022-07-03T13:24:58;4.05;;;2.20;;
59524;SDS011;45346;51.728;5.732;2022-07-03T13:27:24;6.10;;;2.63;;
59524;SDS011;45346;51.728;5.732;2022-07-03T13:29:49;4.97;;;3.00;;
59524;SDS011;45346;51.728;5.732;2022-07-03T13:32:14;5.50;;;2.40;;
59524;SDS011;45346;51.728;5.732;2022-07-03T13:34:39;4.57;;;2.83;;
59524;SDS011;45346;51.728;5.732;2022-07-03T13:37:04;2.83;;;2.50;;
59524;SDS011;45346;51.728;5.732;2022-07-03T13:39:29;4.37;;;2.70;;
59524;SDS011;45346;51.728;5.732;2022-07-03T13:41:55;2.55;;;2.35;;
59524;SDS011;45346;51.728;5.732;2022-07-03T13:44:20;5.28;;;2.33;;
59524;SDS011;45346;51.728;5.732;2022-07-03T13:46:45;4.60;;;2.30;;
59524;SDS011;45346;51.728;5.732;2022-07-03T13:49:10;1.77;;;1.60;;
59524;SDS011;45346;51.728;5.732;2022-07-03T13:51:35;2.43;;;1.60;;
59524;SDS011;45346;51.728;5.732;2022-07-03T13:54:00;2.17;;;1.80;;
59524;SDS011;45346;51.728;5.732;2022-07-03T13:56:26;2.30;;;1.70;;
59524;SDS011;45346;51.728;5.732;2022-07-03T13:58:51;1.97;;;1.50;;
59524;SDS011;45346;51.728;5.732;2022-07-03T14:01:16;6.97;;;1.60;;
59524;SDS011;45346;51.728;5.732;2022-07-03T14:03:42;4.15;;;2.45;;
59524;SDS011;45346;51.728;5.732;2022-07-03T14:06:07;4.57;;;2.90;;
59524;SDS011;45346;51.728;5.732;2022-07-03T14:08:32;5.28;;;3.00;;
59524;SDS011;45346;51.728;5.732;2022-07-03T14:10:57;4.93;;;3.47;;
59524;SDS011;45346;51.728;5.732;2022-07-03T14:13:22;3.70;;;3.17;;
59524;SDS011;45346;51.728;5.732;2022-07-03T14:15:47;6.27;;;3.00;;
59524;SDS011;45346;51.728;5.732;2022-07-03T14:18:13;6.43;;;3.07;;
59524;SDS011;45346;51.728;5.732;2022-07-03T14:20:38;5.53;;;2.97;;
59524;SDS011;45346;51.728;5.732;2022-07-03T14:23:03;4.00;;;2.70;;
59524;SDS011;45346;51.728;5.732;2022-07-03T14:25:28;6.37;;;3.30;;
59524;SDS011;45346;51.728;5.732;2022-07-03T14:27:54;6.72;;;3.05;;
59524;SDS011;45346;51.728;5.732;2022-07-03T14:30:37;10.48;;;3.85;;
59524;SDS011;45346;51.728;5.732;2022-07-03T14:33:21;7.03;;;2.80;;
59524;SDS011;45346;51.728;5.732;2022-07-03T14:35:46;3.40;;;2.77;;
59524;SDS011;45346;51.728;5.732;2022-07-03T14:38:12;4.40;;;3.03;;
59524;SDS011;45346;51.728;5.732;2022-07-03T14:40:37;4.97;;;3.08;;
59524;SDS011;45346;51.728;5.732;2022-07-03T14:43:02;7.07;;;2.80;;
59524;SDS011;45346;51.728;5.732;2022-07-03T14:45:27;3.95;;;2.97;;
59524;SDS011;45346;51.728;5.732;2022-07-03T14:47:52;4.27;;;2.50;;
59524;SDS011;45346;51.728;5.732;2022-07-03T14:50:18;8.80;;;3.33;;
59524;SDS011;45346;51.728;5.732;2022-07-03T14:52:43;3.45;;;2.70;;
59524;SDS011;45346;51.728;5.732;2022-07-03T14:55:08;4.80;;;2.80;;
59524;SDS011;45346;51.728;5.732;2022-07-03T15:02:39;4.20;;;2.63;;
59524;SDS011;45346;51.728;5.732;2022-07-03T15:05:06;5.20;;;2.63;;
59524;SDS011;45346;51.728;5.732;2022-07-03T15:07:34;7.68;;;3.40;;
59524;SDS011;45346;51.728;5.732;2022-07-03T15:10:03;4.45;;;2.30;;
59524;SDS011;45346;51.728;5.732;2022-07-03T15:12:29;3.33;;;2.00;;
59524;SDS011;45346;51.728;5.732;2022-07-03T15:14:55;4.05;;;2.20;;
59524;SDS011;45346;51.728;5.732;2022-07-03T15:17:21;5.15;;;2.70;;
59524;SDS011;45346;51.728;5.732;2022-07-03T15:19:47;3.60;;;2.50;;
59524;SDS011;45346;51.728;5.732;2022-07-03T15:22:13;7.28;;;2.95;;
59524;SDS011;45346;51.728;5.732;2022-07-03T15:24:40;3.17;;;2.03;;
59524;SDS011;45346;51.728;5.732;2022-07-03T15:27:06;5.00;;;1.95;;
59524;SDS011;45346;51.728;5.732;2022-07-03T15:29:31;7.03;;;2.30;;
59524;SDS011;45346;51.728;5.732;2022-07-03T15:32:00;6.72;;;2.30;;
59524;SDS011;45346;51.728;5.732;2022-07-03T15:34:25;11.52;;;1.95;;
59524;SDS011;45346;51.728;5.732;2022-07-03T15:36:51;1.90;;;1.80;;
59524;SDS011;45346;51.728;5.732;2022-07-03T15:39:27;3.17;;;1.63;;
59524;SDS011;45346;51.728;5.732;2022-07-03T15:42:01;4.15;;;1.90;;
59524;SDS011;45346;51.728;5.732;2022-07-03T15:45:03;3.55;;;1.70;;
59524;SDS011;45346;51.728;5.732;2022-07-03T15:49:58;4.10;;;2.00;;